Time;durP1;ratioP1;P1;durP2;ratioP2;P2;SDS_P1;SDS_P2;PMS_P1;PMS_P2;Temp;Humidity;BMP_temperature;BMP_pressure;BME280_temperature;BME280_humidity;BME280_pressure;Samples;Min_cycle;Max_cycle;Signal;HPM_P1;HPM_P2
2023/06/25 00:01:13;;;;;;;14.07;9.10;;;;;;;-149.70;100.00;63222.41;5012439;28;20050;-71
2023/06/25 00:03:40;;;;;;;13.13;9.98;;;;;;;-149.70;100.00;63222.41;5011634;28;20062;-70
2023/06/25 00:06:07;;;;;;;16.92;11.07;;;;;;;-149.70;100.00;63222.41;5012192;28;20088;-72
2023/06/25 00:08:33;;;;;;;14.95;10.23;;;;;;;-149.70;100.00;63222.41;5007571;28;20565;-72
2023/06/25 00:11:00;;;;;;;15.07;10.63;;;;;;;-149.70;100.00;63222.41;4992636;28;20050;-70
2023/06/25 00:13:26;;;;;;;16.30;10.40;;;;;;;-149.70;100.00;63222.41;4993163;28;20054;-71
2023/06/25 00:15:53;;;;;;;14.57;10.75;;;;;;;-149.70;100.00;63222.41;4992189;28;20050;-72
2023/06/25 00:18:19;;;;;;;16.08;11.48;;;;;;;-149.70;100.00;63222.41;4992537;28;20061;-71
2023/06/25 00:20:46;;;;;;;18.35;10.38;;;;;;;-149.70;100.00;63222.41;4992571;28;20474;-71
2023/06/25 00:23:14;;;;;;;14.13;10.13;;;;;;;-149.70;100.00;63222.41;4992496;28;20054;-70
2023/06/25 00:25:40;;;;;;;15.65;10.45;;;;;;;-149.70;100.00;63222.41;4992511;28;20038;-69
2023/06/25 00:28:08;;;;;;;14.45;10.40;;;;;;;-149.70;100.00;63222.41;4992153;28;20050;-72
2023/06/25 00:30:37;;;;;;;15.50;11.27;;;;;;;-149.70;100.00;63222.41;4992299;28;20411;-70
2023/06/25 00:33:04;;;;;;;14.43;11.32;;;;;;;-149.70;100.00;63222.41;4992218;28;20054;-70
2023/06/25 00:36:07;;;;;;;19.85;10.80;;;;;;;-149.70;100.00;63222.41;4992006;28;20038;-70
2023/06/25 00:38:37;;;;;;;15.23;10.60;;;;;;;-149.70;100.00;63222.41;4951206;28;20471;-70
2023/06/25 00:41:08;;;;;;;17.42;10.63;;;;;;;-149.70;100.00;63222.41;4992502;28;20054;-72
2023/06/25 00:43:40;;;;;;;16.60;10.88;;;;;;;-149.70;100.00;63222.41;4992213;28;20046;-71
2023/06/25 00:46:12;;;;;;;19.67;10.88;;;;;;;-149.70;100.00;63222.41;4992645;28;20129;-71
2023/06/25 00:48:45;;;;;;;14.50;10.68;;;;;;;-149.70;100.00;63222.41;4989931;28;20092;-72
2023/06/25 00:51:14;;;;;;;17.60;11.30;;;;;;;-149.70;100.00;63222.41;4991553;28;20137;-72
2023/06/25 00:53:41;;;;;;;14.18;10.85;;;;;;;-149.70;100.00;63222.41;4991961;28;20442;-71
2023/06/25 00:56:09;;;;;;;14.88;10.65;;;;;;;-149.70;100.00;63222.41;4992171;28;20050;-72
2023/06/25 00:58:37;;;;;;;18.23;9.52;;;;;;;-149.70;100.00;63222.41;4991691;28;20047;-72
2023/06/25 01:01:15;;;;;;;14.45;10.43;;;;;;;-149.70;100.00;63222.41;4991324;28;20050;-72
2023/06/25 01:03:54;;;;;;;18.15;10.73;;;;;;;-149.70;100.00;63222.41;4991669;28;20065;-72
2023/06/25 01:09:54;;;;;;;13.75;10.77;;;;;;;-149.70;100.00;63222.41;5006445;28;20119;-72
2023/06/25 01:12:21;;;;;;;16.10;10.23;;;;;;;-149.70;100.00;63222.41;5011172;28;20038;-71
2023/06/25 01:14:49;;;;;;;18.60;10.85;;;;;;;-149.70;100.00;63222.41;5010255;28;20407;-72
2023/06/25 01:17:16;;;;;;;14.57;10.80;;;;;;;-149.70;100.00;63222.41;5010801;28;20045;-71
2023/06/25 01:19:43;;;;;;;16.90;12.10;;;;;;;-149.70;100.00;63222.41;5010197;28;20042;-71
2023/06/25 01:22:11;;;;;;;15.57;12.05;;;;;;;-149.70;100.00;63222.41;5010945;28;20054;-71
2023/06/25 01:24:38;;;;;;;15.70;10.75;;;;;;;-149.70;100.00;63222.41;5010698;28;20046;-71
2023/06/25 01:27:05;;;;;;;16.92;11.40;;;;;;;-149.70;100.00;63222.41;5010040;28;20129;-71
2023/06/25 01:29:34;;;;;;;19.88;11.15;;;;;;;-149.70;100.00;63222.41;5010261;28;20099;-71
2023/06/25 01:32:01;;;;;;;15.65;12.35;;;;;;;-149.70;100.00;63222.41;5010406;28;20050;-71
2023/06/25 01:34:28;;;;;;;16.30;11.65;;;;;;;-149.70;100.00;63222.41;5010417;28;20116;-71
2023/06/25 01:36:54;;;;;;;17.58;11.60;;;;;;;-149.70;100.00;63222.41;5010251;28;20053;-70
2023/06/25 01:39:22;;;;;;;13.63;11.32;;;;;;;-149.70;100.00;63222.41;5010669;28;20045;-71
2023/06/25 01:41:49;;;;;;;18.13;11.57;;;;;;;-149.70;100.00;63222.41;5009447;28;20046;-72
2023/06/25 01:44:25;;;;;;;17.20;11.50;;;;;;;-149.70;100.00;63222.41;5010363;28;20052;-72
2023/06/25 01:46:51;;;;;;;17.48;11.48;;;;;;;-149.70;100.00;63222.41;5009906;28;20552;-73
2023/06/25 01:49:18;;;;;;;16.00;10.77;;;;;;;-149.70;100.00;63222.41;5009217;28;20456;-72
2023/06/25 01:51:57;;;;;;;16.20;11.00;;;;;;;-149.70;100.00;63222.41;5010308;28;20750;-71
2023/06/25 01:54:24;;;;;;;17.67;11.30;;;;;;;-149.70;100.00;63222.41;5010339;28;20391;-66
2023/06/25 01:56:50;;;;;;;16.38;10.40;;;;;;;-149.70;100.00;63222.41;5010711;28;20053;-72
2023/06/25 01:59:17;;;;;;;17.50;10.50;;;;;;;-149.70;100.00;63222.41;5010030;28;20080;-70
2023/06/25 02:01:43;;;;;;;15.55;10.40;;;;;;;-149.70;100.00;63222.41;5010041;28;21487;-71
2023/06/25 02:04:10;;;;;;;17.15;10.68;;;;;;;-149.70;100.00;63222.41;5010085;28;20100;-73
2023/06/25 02:06:37;;;;;;;16.25;11.10;;;;;;;-149.70;100.00;63222.41;5009910;28;20070;-72
2023/06/25 02:09:03;;;;;;;18.17;10.18;;;;;;;-149.70;100.00;63222.41;5002719;28;20050;-70
2023/06/25 02:11:30;;;;;;;14.93;10.25;;;;;;;-149.70;100.00;63222.41;4990964;28;20046;-72
2023/06/25 02:13:56;;;;;;;15.60;11.15;;;;;;;-149.70;100.00;63222.41;4990689;28;20054;-70
2023/06/25 02:16:23;;;;;;;16.73;10.20;;;;;;;-149.70;100.00;63222.41;4992533;28;20050;-71
2023/06/25 02:18:50;;;;;;;16.95;10.27;;;;;;;-149.70;100.00;63222.41;4991423;28;20422;-70
2023/06/25 02:21:17;;;;;;;18.42;10.05;;;;;;;-149.70;100.00;63222.41;4990765;28;20053;-71
2023/06/25 02:23:43;;;;;;;14.38;9.93;;;;;;;-149.70;100.00;63222.41;4990528;28;20097;-71
2023/06/25 02:26:10;;;;;;;15.30;10.07;;;;;;;-149.70;100.00;63222.41;4989730;28;20105;-72
2023/06/25 02:28:36;;;;;;;17.88;11.15;;;;;;;-149.70;100.00;63222.41;4989259;28;20069;-73
2023/06/25 02:31:03;;;;;;;15.57;10.20;;;;;;;-149.70;100.00;63222.41;4989924;28;20065;-70
2023/06/25 02:33:30;;;;;;;15.32;10.57;;;;;;;-149.70;100.00;63222.41;4990070;28;20142;-71
2023/06/25 02:35:56;;;;;;;16.23;10.57;;;;;;;-149.70;100.00;63222.41;4990844;28;20108;-71
2023/06/25 02:38:23;;;;;;;16.70;10.68;;;;;;;-149.70;100.00;63222.41;4991230;28;20101;-71
2023/06/25 02:40:49;;;;;;;13.82;9.45;;;;;;;-149.70;100.00;63222.41;4990536;28;20167;-71
2023/06/25 02:43:16;;;;;;;17.13;9.38;;;;;;;-149.70;100.00;63222.41;4990811;28;20061;-71
2023/06/25 02:45:42;;;;;;;14.68;9.73;;;;;;;-149.70;100.00;63222.41;4990025;28;20077;-71
2023/06/25 02:48:09;;;;;;;13.25;8.90;;;;;;;-149.70;100.00;63222.41;4990077;28;20046;-71
2023/06/25 02:50:35;;;;;;;15.32;9.32;;;;;;;-149.70;100.00;63222.41;4990281;28;20047;-72
2023/06/25 02:53:02;;;;;;;14.32;9.70;;;;;;;-149.70;100.00;63222.41;4989698;28;20109;-70
2023/06/25 02:55:29;;;;;;;14.85;9.18;;;;;;;-149.70;100.00;63222.41;4993026;28;20047;-70
2023/06/25 02:57:56;;;;;;;14.65;9.90;;;;;;;-149.70;100.00;63222.41;4993651;28;20120;-71
2023/06/25 03:00:23;;;;;;;13.00;8.63;;;;;;;-149.70;100.00;63222.41;4994459;28;20053;-72
2023/06/25 03:02:49;;;;;;;11.73;9.48;;;;;;;-149.70;100.00;63222.41;4994123;28;20422;-71
2023/06/25 03:05:16;;;;;;;13.85;9.43;;;;;;;-149.70;100.00;63222.41;4993854;28;20042;-71
2023/06/25 03:07:54;;;;;;;13.20;9.60;;;;;;;-149.70;100.00;63222.41;4993463;28;20063;-71
2023/06/25 03:10:24;;;;;;;15.98;9.63;;;;;;;-149.70;100.00;63222.41;5012447;28;20103;-72
2023/06/25 03:12:50;;;;;;;12.27;9.48;;;;;;;-149.70;100.00;63222.41;5013267;28;20399;-71
2023/06/25 03:15:19;;;;;;;14.52;9.25;;;;;;;-149.70;100.00;63222.41;5013870;28;20046;-72
2023/06/25 03:17:46;;;;;;;14.73;9.40;;;;;;;-149.70;100.00;63222.41;5012663;28;20062;-71
2023/06/25 03:20:13;;;;;;;13.55;9.77;;;;;;;-149.70;100.00;63222.41;5012881;28;20488;-73
2023/06/25 03:22:40;;;;;;;13.35;9.38;;;;;;;-149.70;100.00;63222.41;5012613;28;20045;-72
2023/06/25 03:25:07;;;;;;;15.93;9.57;;;;;;;-149.70;100.00;63222.41;5012684;28;20560;-71
2023/06/25 03:27:34;;;;;;;12.93;8.88;;;;;;;-149.70;100.00;63222.41;5013441;28;20065;-71
2023/06/25 03:30:02;;;;;;;12.13;9.68;;;;;;;-149.70;100.00;63222.41;5012100;28;20096;-71
2023/06/25 03:32:29;;;;;;;14.57;8.90;;;;;;;-149.70;100.00;63222.41;5011942;28;20045;-71
2023/06/25 03:34:55;;;;;;;13.52;9.02;;;;;;;-149.70;100.00;63222.41;5012248;28;20100;-70
2023/06/25 03:37:23;;;;;;;11.18;8.73;;;;;;;-149.70;100.00;63222.41;5013413;28;20054;-72
2023/06/25 03:39:49;;;;;;;13.43;9.05;;;;;;;-149.70;100.00;63222.41;5012350;28;20057;-71
2023/06/25 03:42:16;;;;;;;14.70;9.02;;;;;;;-149.70;100.00;63222.41;5012116;28;20046;-71
2023/06/25 03:44:50;;;;;;;62.10;43.17;;;;;;;-149.70;100.00;63222.41;5011933;28;20461;-72
2023/06/25 03:47:16;;;;;;;54.95;35.90;;;;;;;-149.70;100.00;63222.41;5012073;28;20046;-71
2023/06/25 03:49:43;;;;;;;14.23;10.32;;;;;;;-149.70;100.00;63222.41;5012475;28;20053;-71
2023/06/25 03:52:10;;;;;;;11.95;8.90;;;;;;;-149.70;100.00;63222.41;5012552;28;20053;-71
2023/06/25 03:54:36;;;;;;;12.15;8.88;;;;;;;-149.70;100.00;63222.41;5012564;28;20045;-71
2023/06/25 03:57:04;;;;;;;13.02;9.00;;;;;;;-149.70;100.00;63222.41;5012135;28;20058;-70
2023/06/25 03:59:31;;;;;;;11.50;8.55;;;;;;;-149.70;100.00;63222.41;5011444;28;20052;-71
2023/06/25 04:01:58;;;;;;;12.32;8.75;;;;;;;-149.70;100.00;63222.41;5012180;28;20049;-71
2023/06/25 04:04:25;;;;;;;13.73;8.90;;;;;;;-149.70;100.00;63222.41;5011949;28;20050;-71
2023/06/25 04:06:51;;;;;;;12.65;8.90;;;;;;;-149.70;100.00;63222.41;5012671;28;20512;-71
2023/06/25 04:09:18;;;;;;;15.60;8.68;;;;;;;-149.70;100.00;63222.41;5001710;28;20046;-72
2023/06/25 04:11:45;;;;;;;11.85;9.32;;;;;;;-149.70;100.00;63222.41;4992388;28;20058;-72
2023/06/25 04:14:11;;;;;;;14.07;9.55;;;;;;;-149.70;100.00;63222.41;4992055;28;20423;-72
2023/06/25 04:16:38;;;;;;;14.65;9.32;;;;;;;-149.70;100.00;63222.41;4992538;28;20050;-70
2023/06/25 04:19:04;;;;;;;18.25;9.52;;;;;;;-149.70;100.00;63222.41;4992598;28;20050;-71
2023/06/25 04:21:31;;;;;;;18.02;9.18;;;;;;;-149.70;100.00;63222.41;4992604;28;20042;-71
2023/06/25 04:23:58;;;;;;;15.48;9.88;;;;;;;-149.70;100.00;63222.41;4992532;28;20101;-71
2023/06/25 04:26:24;;;;;;;12.23;9.63;;;;;;;-149.70;100.00;63222.41;4992899;28;20125;-67
2023/06/25 04:28:51;;;;;;;14.68;9.80;;;;;;;-149.70;100.00;63222.41;4993128;28;20169;-71
2023/06/25 04:31:17;;;;;;;14.93;10.18;;;;;;;-149.70;100.00;63222.41;4992740;28;20046;-71
2023/06/25 04:33:44;;;;;;;13.95;10.13;;;;;;;-149.70;100.00;63222.41;4992718;28;20054;-71
2023/06/25 04:36:10;;;;;;;18.38;11.63;;;;;;;-149.70;100.00;63222.41;4992789;28;20046;-71
2023/06/25 04:38:37;;;;;;;13.63;10.48;;;;;;;-149.70;100.00;63222.41;4992698;28;20395;-71
2023/06/25 04:41:04;;;;;;;13.32;9.25;;;;;;;-149.70;100.00;63222.41;4992546;28;20074;-71
2023/06/25 04:43:30;;;;;;;11.45;9.27;;;;;;;-149.70;100.00;63222.41;4992508;28;20052;-71
2023/06/25 04:45:57;;;;;;;12.48;9.70;;;;;;;-149.70;100.00;63222.41;4992245;28;20050;-71
2023/06/25 04:48:23;;;;;;;15.38;9.70;;;;;;;-149.70;100.00;63222.41;4993142;28;20053;-71
2023/06/25 04:50:50;;;;;;;14.98;9.60;;;;;;;-149.70;100.00;63222.41;4990944;28;20442;-72
2023/06/25 04:53:17;;;;;;;14.88;10.05;;;;;;;-149.70;100.00;63222.41;4992719;28;20054;-71
2023/06/25 04:55:44;;;;;;;15.50;10.55;;;;;;;-149.70;100.00;63222.41;4992503;28;20093;-71
2023/06/25 04:58:10;;;;;;;15.52;10.25;;;;;;;-149.70;100.00;63222.41;4992308;28;20474;-71
2023/06/25 05:00:37;;;;;;;13.52;9.85;;;;;;;-149.70;100.00;63222.41;4990945;28;20054;-71
2023/06/25 05:03:03;;;;;;;12.32;9.45;;;;;;;-149.70;100.00;63222.41;4992084;28;20058;-71
2023/06/25 05:05:30;;;;;;;12.85;9.68;;;;;;;-149.70;100.00;63222.41;4991848;28;20050;-72
2023/06/25 05:07:56;;;;;;;15.15;9.27;;;;;;;-149.70;100.00;63222.41;4992102;28;20399;-73
2023/06/25 05:10:23;;;;;;;10.82;9.00;;;;;;;-149.70;100.00;63222.41;5011319;28;20387;-71
2023/06/25 05:12:50;;;;;;;14.70;9.85;;;;;;;-149.70;100.00;63222.41;5011387;28;20058;-71
2023/06/25 05:15:17;;;;;;;11.18;9.15;;;;;;;-149.70;100.00;63222.41;5011272;28;20481;-71
2023/06/25 05:17:44;;;;;;;11.30;9.02;;;;;;;-149.70;100.00;63222.41;5010225;28;20045;-71
2023/06/25 05:20:11;;;;;;;12.88;8.75;;;;;;;-149.70;100.00;63222.41;5011020;28;20069;-71
2023/06/25 05:22:37;;;;;;;13.70;9.15;;;;;;;-149.70;100.00;63222.41;5011191;28;20068;-71
2023/06/25 05:25:04;;;;;;;15.85;8.70;;;;;;;-149.70;100.00;63222.41;5011008;28;20494;-71
2023/06/25 05:27:31;;;;;;;12.48;8.85;;;;;;;-149.70;100.00;63222.41;5011168;28;20045;-72
2023/06/25 05:29:58;;;;;;;13.48;9.40;;;;;;;-149.70;100.00;63222.41;5010795;28;20054;-72
2023/06/25 05:32:24;;;;;;;17.33;9.30;;;;;;;-149.70;100.00;63222.41;5011396;28;20050;-71
2023/06/25 05:34:51;;;;;;;12.82;8.10;;;;;;;-149.70;100.00;63222.41;5011117;28;20052;-71
2023/06/25 05:37:17;;;;;;;11.93;8.50;;;;;;;-149.70;100.00;63222.41;5010114;28;20096;-70
2023/06/25 05:39:44;;;;;;;14.98;8.80;;;;;;;-149.70;100.00;63222.41;5010706;28;20542;-71
2023/06/25 05:42:10;;;;;;;14.43;8.90;;;;;;;-149.70;100.00;63222.41;5010784;28;20073;-71
2023/06/25 05:44:37;;;;;;;15.00;8.70;;;;;;;-149.70;100.00;63222.41;5010752;28;20567;-70
2023/06/25 05:47:04;;;;;;;13.93;8.57;;;;;;;-149.70;100.00;63222.41;5010666;28;20053;-71
2023/06/25 05:49:30;;;;;;;10.55;7.90;;;;;;;-149.70;100.00;63222.41;5010597;28;20042;-70
2023/06/25 05:51:57;;;;;;;12.13;8.77;;;;;;;-149.70;100.00;63222.41;5010656;28;20123;-69
2023/06/25 05:54:24;;;;;;;9.98;8.32;;;;;;;-149.70;100.00;63222.41;5011205;28;20438;-70
2023/06/25 05:56:50;;;;;;;15.95;8.27;;;;;;;-149.70;100.00;63222.41;5010746;28;20076;-70
2023/06/25 05:59:17;;;;;;;11.43;8.00;;;;;;;-149.70;100.00;63222.41;5010397;28;20465;-70
2023/06/25 06:01:44;;;;;;;10.48;8.68;;;;;;;-149.70;100.00;63222.41;5010124;28;20108;-70
2023/06/25 06:04:10;;;;;;;14.45;8.23;;;;;;;-149.70;100.00;63222.41;5010142;28;20465;-71
2023/06/25 06:06:37;;;;;;;10.65;8.60;;;;;;;-149.70;100.00;63222.41;5010362;28;20069;-71
2023/06/25 06:09:03;;;;;;;15.80;8.80;;;;;;;-149.70;100.00;63222.41;5002040;28;20104;-71
2023/06/25 06:11:30;;;;;;;13.15;8.65;;;;;;;-149.70;100.00;63222.41;4991046;28;20462;-71
2023/06/25 06:13:56;;;;;;;14.93;9.05;;;;;;;-149.70;100.00;63222.41;4991197;28;20050;-72
2023/06/25 06:16:23;;;;;;;12.57;8.30;;;;;;;-149.70;100.00;63222.41;4991361;28;20053;-71
2023/06/25 06:18:50;;;;;;;12.68;8.60;;;;;;;-149.70;100.00;63222.41;4991265;28;20050;-71
2023/06/25 06:21:16;;;;;;;12.35;8.43;;;;;;;-149.70;100.00;63222.41;4991029;28;20050;-70
2023/06/25 06:23:43;;;;;;;14.40;8.68;;;;;;;-149.70;100.00;63222.41;4990930;28;20086;-71
2023/06/25 06:26:09;;;;;;;13.77;8.32;;;;;;;-149.70;100.00;63222.41;4990638;28;20097;-71
2023/06/25 06:28:36;;;;;;;11.85;8.07;;;;;;;-149.70;100.00;63222.41;4992523;28;20046;-72
2023/06/25 06:31:03;;;;;;;11.82;8.70;;;;;;;-149.70;100.00;63222.41;4994844;28;20454;-71
2023/06/25 06:33:31;;;;;;;14.80;9.13;;;;;;;-149.70;100.00;63222.41;4994682;28;20133;-70
2023/06/25 06:35:59;;;;;;;15.25;9.80;;;;;;;-149.70;100.00;63222.41;4994699;28;20101;-70
2023/06/25 06:38:25;;;;;;;11.38;9.00;;;;;;;-149.70;100.00;63222.41;4994948;28;20113;-70
2023/06/25 06:40:52;;;;;;;13.80;9.15;;;;;;;-149.70;100.00;63222.41;4995421;28;20077;-72
2023/06/25 06:43:19;;;;;;;12.50;9.55;;;;;;;-149.70;100.00;63222.41;4994782;28;20046;-72
2023/06/25 06:45:45;;;;;;;11.18;8.82;;;;;;;-149.70;100.00;63222.41;4994675;28;20097;-71
2023/06/25 06:48:12;;;;;;;12.52;8.73;;;;;;;-149.70;100.00;63222.41;4993331;28;20120;-71
2023/06/25 06:50:39;;;;;;;14.45;9.50;;;;;;;-149.70;100.00;63222.41;4994757;28;20042;-70
2023/06/25 06:53:05;;;;;;;11.82;8.73;;;;;;;-149.70;100.00;63222.41;4993332;28;20058;-70
2023/06/25 06:55:33;;;;;;;11.65;8.50;;;;;;;-149.70;100.00;63222.41;4994791;28;20046;-71
2023/06/25 06:57:59;;;;;;;13.48;8.80;;;;;;;-149.70;100.00;63222.41;4994537;28;20078;-70
2023/06/25 07:00:26;;;;;;;15.15;8.98;;;;;;;-149.70;100.00;63222.41;4994718;28;20061;-70
2023/06/25 07:02:57;;;;;;;11.60;7.93;;;;;;;-149.70;100.00;63222.41;4995264;28;20120;-70
2023/06/25 07:05:24;;;;;;;13.40;8.30;;;;;;;-149.70;100.00;63222.41;4994786;28;20038;-71
2023/06/25 07:07:51;;;;;;;14.13;8.48;;;;;;;-149.70;100.00;63222.41;4994462;28;20414;-71
2023/06/25 07:10:17;;;;;;;15.63;8.18;;;;;;;-149.70;100.00;63222.41;5012233;28;20117;-72
2023/06/25 07:12:44;;;;;;;11.27;7.47;;;;;;;-149.70;100.00;63222.41;5013515;28;20056;-71
2023/06/25 07:15:10;;;;;;;12.10;7.78;;;;;;;-149.70;100.00;63222.41;5013582;28;20495;-71
2023/06/25 07:17:37;;;;;;;10.50;6.80;;;;;;;-149.70;100.00;63222.41;5013564;28;20050;-71
2023/06/25 07:20:04;;;;;;;10.15;7.75;;;;;;;-149.70;100.00;63222.41;5013211;28;20053;-71
2023/06/25 07:22:32;;;;;;;13.48;7.80;;;;;;;-149.70;100.00;63222.41;5013375;28;20049;-71
2023/06/25 07:25:00;;;;;;;9.45;7.40;;;;;;;-149.70;100.00;63222.41;4996103;28;20069;-70
2023/06/25 07:27:27;;;;;;;9.13;7.47;;;;;;;-149.70;100.00;63222.41;5013256;28;20046;-70
2023/06/25 07:29:53;;;;;;;14.02;7.75;;;;;;;-149.70;100.00;63222.41;4995955;28;20050;-72
2023/06/25 07:32:20;;;;;;;12.57;8.10;;;;;;;-149.70;100.00;63222.41;5012665;28;20046;-70
2023/06/25 07:34:47;;;;;;;12.55;6.95;;;;;;;-149.70;100.00;63222.41;5012274;28;20049;-72
2023/06/25 07:37:14;;;;;;;9.73;7.25;;;;;;;-149.70;100.00;63222.41;5012635;28;20054;-71
2023/06/25 07:39:40;;;;;;;11.48;7.50;;;;;;;-149.70;100.00;63222.41;5012291;28;20042;-71
2023/06/25 07:42:07;;;;;;;11.50;7.75;;;;;;;-149.70;100.00;63222.41;5012872;28;20050;-71
2023/06/25 07:44:33;;;;;;;12.77;7.15;;;;;;;-149.70;100.00;63222.41;5012764;28;20441;-72
2023/06/25 07:47:16;;;;;;;10.30;7.45;;;;;;;-149.70;100.00;63222.41;5012804;28;20053;-71
2023/06/25 07:49:42;;;;;;;14.93;11.73;;;;;;;-149.70;100.00;63222.41;5012886;28;20073;-71
2023/06/25 07:52:09;;;;;;;15.40;6.65;;;;;;;-149.70;100.00;63222.41;5012416;28;20049;-71
2023/06/25 07:54:35;;;;;;;10.63;7.35;;;;;;;-149.70;100.00;63222.41;5012840;28;20045;-71
2023/06/25 07:57:02;;;;;;;8.68;7.03;;;;;;;-149.70;100.00;63222.41;5012260;28;20092;-71
2023/06/25 07:59:29;;;;;;;8.93;7.22;;;;;;;-149.70;100.00;63222.41;5012703;28;20104;-72
2023/06/25 08:02:12;;;;;;;10.43;6.60;;;;;;;-149.70;100.00;63222.41;5012114;28;20052;-72
2023/06/25 08:04:38;;;;;;;11.55;6.25;;;;;;;-149.70;100.00;63222.41;5012073;28;20050;-70
2023/06/25 08:07:05;;;;;;;8.75;5.97;;;;;;;-149.70;100.00;63222.41;5012522;28;20085;-71
2023/06/25 08:09:32;;;;;;;11.10;6.38;;;;;;;-149.70;100.00;63222.41;5000424;28;20042;-71
2023/06/25 08:11:58;;;;;;;9.00;6.30;;;;;;;-149.70;100.00;63222.41;4992939;28;20054;-71
2023/06/25 08:14:25;;;;;;;12.32;6.30;;;;;;;-149.70;100.00;63222.41;4993719;28;20054;-72
2023/06/25 08:16:51;;;;;;;9.52;6.35;;;;;;;-149.70;100.00;63222.41;4993340;28;20403;-72
2023/06/25 08:19:18;;;;;;;9.50;6.03;;;;;;;-149.70;100.00;63222.41;4993233;28;20085;-72
2023/06/25 08:21:44;;;;;;;10.60;6.53;;;;;;;-149.70;100.00;63222.41;4992739;28;20045;-72
2023/06/25 08:24:11;;;;;;;8.55;6.68;;;;;;;-149.70;100.00;63222.41;4992517;28;20097;-72
2023/06/25 08:26:37;;;;;;;8.25;6.53;;;;;;;-149.70;100.00;63222.41;4992749;28;20510;-71
2023/06/25 08:29:04;;;;;;;7.15;6.18;;;;;;;-149.70;100.00;63222.41;4992211;28;20071;-72
2023/06/25 08:31:31;;;;;;;8.35;6.30;;;;;;;-149.70;100.00;63222.41;4992749;28;20058;-72
2023/06/25 08:33:58;;;;;;;7.85;6.13;;;;;;;-149.70;100.00;63222.41;4992867;28;20050;-71
2023/06/25 08:36:24;;;;;;;10.98;7.00;;;;;;;-149.70;100.00;63222.41;4993136;28;20045;-71
2023/06/25 08:38:51;;;;;;;9.75;6.18;;;;;;;-149.70;100.00;63222.41;4992430;28;20456;-70
2023/06/25 08:41:17;;;;;;;7.88;6.15;;;;;;;-149.70;100.00;63222.41;4992287;28;20038;-71
2023/06/25 08:43:45;;;;;;;9.40;6.50;;;;;;;-149.70;100.00;63222.41;4992600;28;20066;-72
2023/06/25 08:46:13;;;;;;;7.20;5.85;;;;;;;-149.70;100.00;63222.41;4992710;28;20101;-71
2023/06/25 08:48:40;;;;;;;9.93;7.45;;;;;;;-149.70;100.00;63222.41;4992642;28;20458;-71
2023/06/25 08:51:16;;;;;;;7.72;6.13;;;;;;;-149.70;100.00;63222.41;4992383;28;20054;-71
2023/06/25 08:53:44;;;;;;;10.93;6.45;;;;;;;-149.70;100.00;63222.41;4992475;28;20038;-72
2023/06/25 08:56:11;;;;;;;7.47;6.13;;;;;;;-149.70;100.00;63222.41;4992287;28;20042;-71
2023/06/25 08:58:37;;;;;;;9.48;6.38;;;;;;;-149.70;100.00;63222.41;4992017;28;20062;-71
2023/06/25 09:01:04;;;;;;;6.75;5.88;;;;;;;-149.70;100.00;63222.41;4991662;28;20054;-73
2023/06/25 09:03:31;;;;;;;13.27;7.20;;;;;;;-149.70;100.00;63222.41;4991851;28;20525;-71
2023/06/25 09:05:57;;;;;;;12.55;7.00;;;;;;;-149.70;100.00;63222.41;4992049;28;20066;-71
2023/06/25 09:08:26;;;;;;;10.98;6.40;;;;;;;-149.70;100.00;63222.41;4995255;28;20050;-71
2023/06/25 09:10:54;;;;;;;7.40;5.93;;;;;;;-149.70;100.00;63222.41;5011654;28;20429;-72
2023/06/25 09:13:23;;;;;;;9.52;5.82;;;;;;;-149.70;100.00;63222.41;5011253;28;20089;-72
2023/06/25 09:15:53;;;;;;;7.68;5.38;;;;;;;-149.70;100.00;63222.41;5011398;28;20443;-70
2023/06/25 09:18:22;;;;;;;10.65;6.20;;;;;;;-149.70;100.00;63222.41;5011124;28;20112;-71
2023/06/25 09:20:49;;;;;;;6.57;5.88;;;;;;;-149.70;100.00;63222.41;5010691;28;20046;-70
2023/06/25 09:23:22;;;;;;;9.02;6.05;;;;;;;-149.70;100.00;63222.41;5011580;28;20049;-70
2023/06/25 09:25:53;;;;;;;8.10;6.30;;;;;;;-149.70;100.00;63222.41;5010576;28;20045;-73
2023/06/25 09:28:19;;;;;;;6.70;5.32;;;;;;;-149.70;100.00;63222.41;5010828;28;20104;-70
2023/06/25 09:30:46;;;;;;;8.80;5.35;;;;;;;-149.70;100.00;63222.41;5011159;28;20057;-71
2023/06/25 09:33:15;;;;;;;6.97;5.75;;;;;;;-149.70;100.00;63222.41;5011005;28;20045;-70
2023/06/25 09:35:41;;;;;;;8.32;5.63;;;;;;;-149.70;100.00;63222.41;5010933;28;20068;-70
2023/06/25 09:38:08;;;;;;;10.38;4.78;;;;;;;-149.70;100.00;63222.41;5010929;28;20042;-70
2023/06/25 09:40:35;;;;;;;8.52;5.07;;;;;;;-149.70;100.00;63222.41;5010846;28;20087;-72
2023/06/25 09:43:05;;;;;;;9.05;4.85;;;;;;;-149.70;100.00;63222.41;5010904;28;20046;-71
2023/06/25 09:45:34;;;;;;;9.93;5.97;;;;;;;-149.70;100.00;63222.41;5010916;28;20042;-71
2023/06/25 09:48:01;;;;;;;10.80;6.25;;;;;;;-149.70;100.00;63222.41;5010310;28;20049;-69
2023/06/25 09:50:32;;;;;;;7.60;5.15;;;;;;;-149.70;100.00;63222.41;5010767;28;20053;-71
2023/06/25 09:53:03;;;;;;;5.22;4.53;;;;;;;-149.70;100.00;63222.41;5010164;28;20046;-71
2023/06/25 09:55:30;;;;;;;10.07;5.28;;;;;;;-149.70;100.00;63222.41;5010512;28;20049;-70
2023/06/25 09:57:57;;;;;;;9.05;5.65;;;;;;;-149.70;100.00;63222.41;5010607;28;20049;-69
2023/06/25 10:00:24;;;;;;;6.18;4.82;;;;;;;-149.70;100.00;63222.41;5011174;28;20453;-76
2023/06/25 10:02:52;;;;;;;7.40;4.85;;;;;;;-149.70;100.00;63222.41;5010313;28;20054;-74
2023/06/25 10:05:19;;;;;;;5.93;4.20;;;;;;;-149.70;100.00;63222.41;5009862;28;20046;-74
2023/06/25 10:07:47;;;;;;;6.85;3.85;;;;;;;-149.70;100.00;63222.41;5010444;28;20394;-75
2023/06/25 10:10:26;;;;;;;7.03;4.07;;;;;;;-149.70;100.00;63222.41;4992785;28;20046;-75
2023/06/25 10:12:53;;;;;;;8.52;3.92;;;;;;;-149.70;100.00;63222.41;4991330;28;20442;-75
2023/06/25 10:15:31;;;;;;;5.53;4.10;;;;;;;-149.70;100.00;63222.41;4991797;28;20050;-73
2023/06/25 10:17:59;;;;;;;8.27;4.25;;;;;;;-149.70;100.00;63222.41;4989872;28;20057;-72
2023/06/25 10:20:30;;;;;;;6.13;4.57;;;;;;;-149.70;100.00;63222.41;4990955;28;20050;-73
2023/06/25 10:23:10;;;;;;;6.72;4.00;;;;;;;-149.70;100.00;63222.41;4990926;28;20054;-73
2023/06/25 10:25:41;;;;;;;7.72;4.53;;;;;;;-149.70;100.00;63222.41;4991094;28;20093;-73
2023/06/25 10:28:12;;;;;;;5.72;4.00;;;;;;;-149.70;100.00;63222.41;4990820;28;20058;-73
2023/06/25 10:30:48;;;;;;;8.52;4.28;;;;;;;-149.70;100.00;63222.41;4990716;28;20046;-69
2023/06/25 10:33:18;;;;;;;7.50;4.25;;;;;;;-149.70;100.00;63222.41;4990868;28;20097;-72
2023/06/25 10:35:57;;;;;;;7.05;3.88;;;;;;;-149.70;100.00;63222.41;4990998;28;20421;-70
2023/06/25 10:38:26;;;;;;;6.90;3.88;;;;;;;-149.70;100.00;63222.41;4991018;28;20073;-70
2023/06/25 10:40:54;;;;;;;7.22;4.50;;;;;;;-149.70;100.00;63222.41;4989942;28;20043;-71
2023/06/25 10:43:21;;;;;;;6.53;4.30;;;;;;;-149.70;100.00;63222.41;4991248;28;20073;-71
2023/06/25 10:45:49;;;;;;;8.07;4.30;;;;;;;-149.70;100.00;63222.41;4991016;28;20050;-70
2023/06/25 10:48:16;;;;;;;4.78;4.00;;;;;;;-149.70;100.00;63222.41;4990874;28;20058;-73
2023/06/25 10:50:43;;;;;;;5.50;4.05;;;;;;;-149.70;100.00;63222.41;4990553;28;20050;-71
2023/06/25 10:53:13;;;;;;;7.30;4.28;;;;;;;-149.70;100.00;63222.41;4990567;28;20077;-74
2023/06/25 10:55:43;;;;;;;8.40;4.50;;;;;;;-149.70;100.00;63222.41;4990545;28;20453;-72
2023/06/25 10:58:14;;;;;;;6.47;4.70;;;;;;;-149.70;100.00;63222.41;4990871;28;20499;-72
2023/06/25 11:00:40;;;;;;;4.90;3.97;;;;;;;-149.70;100.00;63222.41;4990572;28;20116;-72
2023/06/25 11:03:07;;;;;;;6.35;3.97;;;;;;;-149.70;100.00;63222.41;4990246;28;20050;-72
2023/06/25 11:05:40;;;;;;;7.40;4.60;;;;;;;-149.70;100.00;63222.41;4990596;28;20395;-73
2023/06/25 11:08:07;;;;;;;8.50;3.70;;;;;;;-149.70;100.00;63222.41;4990898;28;20062;-77